Time;durP1;ratioP1;P1;durP2;ratioP2;P2;SDS_P1;SDS_P2;PMS_P1;PMS_P2;Temp;Humidity;BMP_temperature;BMP_pressure;BME280_temperature;BME280_humidity;BME280_pressure;Samples;Min_cycle;Max_cycle;Signal;HPM_P1;HPM_P2
2023/08/31 00:00:15;;;;;;;4.35;2.92;;;;;;;27.71;39.64;98951.59;4302485;33;34178;-66
2023/08/31 00:02:43;;;;;;;5.50;3.10;;;;;;;27.73;39.75;98958.72;4302426;33;33829;-66
2023/08/31 00:05:11;;;;;;;5.87;3.33;;;;;;;27.73;39.70;98958.72;4302470;33;33834;-68
2023/08/31 00:07:38;;;;;;;7.57;3.60;;;;;;;27.72;39.74;98957.87;4302408;33;33948;-69
2023/08/31 00:10:09;;;;;;;5.43;3.37;;;;;;;27.71;39.68;98956.22;4302376;33;33858;-72
2023/08/31 00:12:37;;;;;;;4.82;2.92;;;;;;;27.70;39.66;98955.41;4302148;33;33622;-71
2023/08/31 00:15:05;;;;;;;5.40;3.20;;;;;;;27.71;39.65;98950.75;4302283;33;33721;-74
2023/08/31 00:17:33;;;;;;;5.22;3.00;;;;;;;27.70;39.62;98957.31;4302283;33;34056;-67
2023/08/31 00:20:00;;;;;;;5.53;3.65;;;;;;;27.69;39.64;98958.41;4288963;33;33890;-68
2023/08/31 00:22:28;;;;;;;5.78;2.87;;;;;;;27.69;39.70;98956.47;4302340;33;33489;-73
2023/08/31 00:24:57;;;;;;;5.10;3.33;;;;;;;27.69;39.80;98950.19;4289094;33;33921;-74
2023/08/31 00:27:24;;;;;;;5.12;3.33;;;;;;;27.68;39.62;98948.53;4300821;33;34080;-66
2023/08/31 00:29:52;;;;;;;6.70;3.62;;;;;;;27.69;39.61;98952.91;4294929;33;34886;-74
2023/08/31 00:32:22;;;;;;;6.22;3.03;;;;;;;27.68;39.66;98963.06;4287580;33;33613;-69
2023/08/31 00:34:50;;;;;;;4.95;3.15;;;;;;;27.68;39.59;98954.84;4287509;33;34339;-68
2023/08/31 00:37:18;;;;;;;8.90;3.20;;;;;;;27.68;39.59;98965.78;4286467;33;33745;-65
2023/08/31 00:39:47;;;;;;;7.27;3.30;;;;;;;27.67;39.65;98955.13;4287718;33;34074;-69
2023/08/31 00:42:14;;;;;;;6.12;3.20;;;;;;;27.66;39.61;98962.53;4287511;33;34286;-68
2023/08/31 00:44:42;;;;;;;5.03;3.17;;;;;;;27.66;39.48;98962.53;4287549;33;33956;-70
2023/08/31 00:47:10;;;;;;;5.62;3.15;;;;;;;27.64;39.63;98961.12;4288534;33;33879;-74
2023/08/31 00:49:37;;;;;;;4.70;2.95;;;;;;;27.64;39.59;98959.22;4288196;33;34111;-67
2023/08/31 00:52:05;;;;;;;8.55;4.03;;;;;;;27.64;39.58;98961.97;4288002;33;33660;-72
2023/08/31 00:54:33;;;;;;;5.03;3.17;;;;;;;27.63;39.62;98956.75;4276156;33;34673;-73
2023/08/31 00:57:01;;;;;;;6.37;3.10;;;;;;;27.63;39.72;98968.53;4288089;33;34981;-67
2023/08/31 00:59:29;;;;;;;5.50;3.30;;;;;;;27.62;39.62;98966.91;4289198;33;34026;-71
2023/08/31 01:02:05;;;;;;;5.18;3.35;;;;;;;27.63;39.61;98973.22;4288998;33;33970;-74
2023/08/31 01:04:46;;;;;;;5.10;3.00;;;;;;;27.64;39.65;98974.84;4288040;33;33633;-70
2023/08/31 01:07:26;;;;;;;6.25;3.55;;;;;;;27.63;39.62;98973.22;4289083;33;33870;-71
2023/08/31 01:10:42;;;;;;;5.57;3.30;;;;;;;27.62;39.57;98974.31;4289196;33;34097;-72
2023/08/31 01:13:13;;;;;;;5.45;3.20;;;;;;;27.64;39.63;98974.84;4280000;33;33312;-68
2023/08/31 01:15:50;;;;;;;5.62;3.58;;;;;;;27.60;39.59;98974.56;4287764;33;34545;-66
2023/08/31 01:18:19;;;;;;;5.50;3.40;;;;;;;27.61;39.68;98980.91;4287770;33;33915;-66
2023/08/31 01:20:52;;;;;;;5.57;3.50;;;;;;;27.59;39.60;98980.31;4289072;33;35161;-66
2023/08/31 01:23:20;;;;;;;7.35;3.78;;;;;;;27.59;39.64;98981.16;4289117;33;34378;-70
2023/08/31 01:25:48;;;;;;;6.57;4.00;;;;;;;27.58;39.55;98981.44;4287875;33;33663;-66
2023/08/31 01:28:15;;;;;;;6.65;3.40;;;;;;;27.58;39.56;98993.22;4287702;33;33513;-69
2023/08/31 01:30:43;;;;;;;6.85;3.55;;;;;;;27.58;39.63;98995.94;4301210;33;33847;-70
2023/08/31 01:33:12;;;;;;;7.15;3.53;;;;;;;27.58;39.63;98995.13;4303463;33;33580;-66
2023/08/31 01:35:43;;;;;;;6.18;3.42;;;;;;;27.57;39.61;98983.34;4303377;33;34725;-67
2023/08/31 01:38:11;;;;;;;6.50;3.25;;;;;;;27.56;39.63;98978.97;4302509;33;34592;-70
2023/08/31 01:41:03;;;;;;;7.28;3.60;;;;;;;27.58;39.57;98978.69;4290264;33;34937;-68
2023/08/31 01:43:31;;;;;;;7.47;3.40;;;;;;;27.58;39.52;98978.69;4302221;33;33169;-73
2023/08/31 01:46:00;;;;;;;5.43;3.10;;;;;;;27.56;39.59;98981.72;4290461;33;33653;-68
2023/08/31 01:48:27;;;;;;;7.03;3.50;;;;;;;27.57;39.63;98988.00;4303470;33;33534;-69
2023/08/31 01:50:56;;;;;;;4.93;2.90;;;;;;;27.55;39.57;98985.53;4303276;33;34244;-72
2023/08/31 01:53:25;;;;;;;5.55;2.90;;;;;;;27.54;39.60;98978.41;4303322;33;34380;-66
2023/08/31 01:55:52;;;;;;;5.80;3.10;;;;;;;27.54;39.58;98989.38;4303242;33;33466;-65
2023/08/31 01:58:21;;;;;;;5.07;3.55;;;;;;;27.55;39.58;98995.66;4298345;33;164107;-66
2023/08/31 02:00:49;;;;;;;7.95;3.17;;;;;;;27.54;39.61;98985.81;4303570;33;34001;-72
2023/08/31 02:03:17;;;;;;;5.07;3.12;;;;;;;27.54;39.64;98988.56;4303231;33;33434;-66
2023/08/31 02:05:45;;;;;;;6.28;2.97;;;;;;;27.53;39.67;98986.91;4303249;33;34375;-68
2023/08/31 02:08:17;;;;;;;5.40;3.50;;;;;;;27.53;39.69;98989.66;4303296;33;33999;-66
2023/08/31 02:10:48;;;;;;;6.85;3.42;;;;;;;27.53;39.66;98985.00;4303201;33;34046;-66
2023/08/31 02:13:19;;;;;;;6.37;3.22;;;;;;;27.52;39.69;98985.28;4303243;33;33604;-67
2023/08/31 02:15:51;;;;;;;5.12;3.33;;;;;;;27.52;39.61;98983.34;4303118;33;34544;-66
2023/08/31 02:18:19;;;;;;;6.12;3.30;;;;;;;27.51;39.60;98994.56;4303231;33;34758;-66
2023/08/31 02:20:47;;;;;;;4.70;3.00;;;;;;;27.52;39.58;98991.56;4301969;33;33813;-67
2023/08/31 02:23:15;;;;;;;5.30;2.92;;;;;;;27.51;39.65;98989.91;4301925;33;33356;-73
2023/08/31 02:25:42;;;;;;;4.95;3.08;;;;;;;27.51;39.58;98989.09;4303164;33;34715;-69
2023/08/31 02:28:10;;;;;;;4.75;2.75;;;;;;;27.52;39.58;98996.22;4303292;33;34923;-73
2023/08/31 02:30:38;;;;;;;5.47;3.12;;;;;;;27.50;39.55;98993.75;4291261;33;33898;-72
2023/08/31 02:33:05;;;;;;;5.25;2.83;;;;;;;27.50;39.53;99001.16;4288853;33;33532;-67
2023/08/31 02:35:33;;;;;;;5.25;2.87;;;;;;;27.51;39.67;98997.31;4288947;33;33950;-66
2023/08/31 02:38:03;;;;;;;7.37;3.00;;;;;;;27.49;39.61;98997.59;4288669;33;33979;-70
2023/08/31 02:40:30;;;;;;;7.10;2.75;;;;;;;27.50;39.53;98991.00;4288631;33;34117;-65
2023/08/31 02:42:58;;;;;;;5.25;3.15;;;;;;;27.51;39.49;99002.78;4275580;33;33641;-72
2023/08/31 02:45:25;;;;;;;4.75;3.15;;;;;;;27.49;39.50;99005.00;4288600;33;33881;-67
2023/08/31 02:47:54;;;;;;;5.07;2.80;;;;;;;27.48;39.51;99006.91;4275659;33;33913;-73
2023/08/31 02:50:21;;;;;;;5.28;3.03;;;;;;;27.47;39.58;99008.00;4288448;33;33855;-72
2023/08/31 02:52:49;;;;;;;8.55;2.67;;;;;;;27.48;39.62;99003.34;4288810;33;33433;-70
2023/08/31 02:55:17;;;;;;;4.32;2.70;;;;;;;27.47;39.62;99005.28;4288590;33;33992;-71
2023/08/31 02:57:44;;;;;;;4.28;2.47;;;;;;;27.47;39.56;98999.78;4288149;33;33996;-69
2023/08/31 03:00:12;;;;;;;4.18;2.70;;;;;;;27.45;39.57;98997.31;4288527;33;34960;-74
2023/08/31 03:02:40;;;;;;;5.85;2.80;;;;;;;27.47;39.49;98999.78;4288548;33;33754;-69
2023/08/31 03:05:08;;;;;;;4.53;2.90;;;;;;;27.45;39.60;98999.22;4288588;33;34318;-69
2023/08/31 03:07:36;;;;;;;8.25;3.20;;;;;;;27.45;39.51;98985.53;4287269;33;33146;-71
2023/08/31 03:10:06;;;;;;;;;;;;;;;27.45;39.58;98996.47;4288480;33;34606;-67
2023/08/31 03:12:33;;;;;;;4.45;2.80;;;;;;;27.56;39.40;98991.81;4288657;33;33948;-71
2023/08/31 03:15:00;;;;;;;3.97;2.58;;;;;;;27.48;39.51;99000.59;4288566;33;33433;-71
2023/08/31 03:17:28;;;;;;;5.80;2.85;;;;;;;27.44;39.46;98997.59;4288511;33;33954;-75
2023/08/31 03:19:56;;;;;;;3.97;2.35;;;;;;;27.44;39.43;98992.09;4288372;33;35084;-68
2023/08/31 03:22:23;;;;;;;4.55;2.45;;;;;;;27.44;39.59;98994.84;4288701;33;34492;-70
2023/08/31 03:24:51;;;;;;;5.28;2.47;;;;;;;27.42;39.53;98997.88;4288372;33;33994;-69
2023/08/31 03:27:21;;;;;;;5.90;2.80;;;;;;;27.43;39.51;98995.94;4288240;33;34140;-72
2023/08/31 03:29:49;;;;;;;5.15;3.12;;;;;;;27.41;39.45;99001.69;4295118;33;34309;-67
2023/08/31 03:32:17;;;;;;;4.90;2.50;;;;;;;27.41;39.43;99001.69;4302704;33;33720;-69
2023/08/31 03:34:45;;;;;;;5.03;2.42;;;;;;;27.41;39.28;99006.34;4302587;33;34137;-69
2023/08/31 03:37:13;;;;;;;5.87;2.53;;;;;;;27.40;39.36;99005.53;4302938;33;33732;-68
2023/08/31 03:39:43;;;;;;;4.50;2.55;;;;;;;27.40;39.37;99011.00;4289662;33;34320;-70
2023/08/31 03:42:11;;;;;;;7.65;2.85;;;;;;;27.40;39.42;99008.25;4302634;33;33900;-67
2023/08/31 03:44:38;;;;;;;4.12;2.75;;;;;;;27.40;39.36;99016.47;4302567;33;34646;-70
2023/08/31 03:47:07;;;;;;;3.83;2.30;;;;;;;27.39;39.32;99014.84;4302764;33;34319;-67
2023/08/31 03:49:35;;;;;;;3.80;2.40;;;;;;;27.39;39.36;99014.84;4302766;33;33888;-71
2023/08/31 03:52:02;;;;;;;4.50;2.47;;;;;;;27.39;39.25;99014.03;4302492;33;33831;-66
2023/08/31 03:54:30;;;;;;;5.07;2.25;;;;;;;27.38;39.25;99013.19;4302730;33;33594;-71
2023/08/31 03:56:58;;;;;;;3.37;2.30;;;;;;;27.37;39.24;99010.72;4302465;33;33790;-66
2023/08/31 03:59:25;;;;;;;3.90;2.10;;;;;;;27.37;39.30;99011.56;4302405;33;34107;-70
2023/08/31 04:01:53;;;;;;;5.05;2.12;;;;;;;27.37;39.19;99013.44;4302437;33;33434;-68
2023/08/31 04:04:21;;;;;;;3.80;2.40;;;;;;;27.37;39.17;99013.44;4302554;33;34969;-71
2023/08/31 04:06:48;;;;;;;2.83;2.00;;;;;;;27.35;38.98;99015.66;4302451;33;33875;-69
2023/08/31 04:09:16;;;;;;;4.87;2.45;;;;;;;27.34;39.16;99016.75;4302632;33;34164;-74
2023/08/31 04:11:43;;;;;;;4.03;2.70;;;;;;;27.33;39.07;99026.06;4301180;33;33266;-67
2023/08/31 04:14:11;;;;;;;4.10;2.00;;;;;;;27.33;39.13;99031.56;4302324;33;34649;-68
2023/08/31 04:16:39;;;;;;;4.07;2.25;;;;;;;27.32;39.22;99030.69;4302197;33;34773;-74
2023/08/31 04:19:06;;;;;;;3.78;2.08;;;;;;;27.32;39.19;99033.44;4302333;33;34249;-68
2023/08/31 04:21:34;;;;;;;3.70;2.30;;;;;;;27.32;39.21;99027.13;4301201;33;33882;-74
2023/08/31 04:24:02;;;;;;;4.57;2.12;;;;;;;27.31;39.13;99037.28;4302174;33;35004;-68
2023/08/31 04:26:30;;;;;;;4.55;2.00;;;;;;;27.31;39.10;99034.53;4302190;33;34094;-72
2023/08/31 04:28:57;;;;;;;5.80;2.12;;;;;;;27.30;39.15;99043.84;4300515;33;34379;-68
2023/08/31 04:31:25;;;;;;;2.87;1.90;;;;;;;27.31;39.24;99047.41;4287544;33;33584;-70
2023/08/31 04:33:55;;;;;;;4.43;2.53;;;;;;;27.30;39.15;99045.78;4287331;33;33403;-73
2023/08/31 04:36:23;;;;;;;5.03;2.20;;;;;;;27.28;39.11;99046.06;4287646;33;34961;-71
2023/08/31 04:38:50;;;;;;;6.90;2.15;;;;;;;27.27;39.22;99055.34;4287282;33;34689;-72
2023/08/31 04:41:18;;;;;;;5.57;2.20;;;;;;;27.29;39.28;99063.31;4287548;33;33457;-69
2023/08/31 04:43:49;;;;;;;4.93;2.10;;;;;;;27.29;39.17;99064.13;4287577;33;34026;-72
2023/08/31 04:46:17;;;;;;;6.82;2.30;;;;;;;27.28;39.17;99062.50;4274515;33;34036;-73
2023/08/31 04:48:44;;;;;;;3.55;2.20;;;;;;;27.27;39.14;99066.31;4287538;33;34196;-67
2023/08/31 04:51:32;;;;;;;6.07;2.20;;;;;;;27.27;39.19;99066.31;4287527;33;33717;-69
2023/08/31 04:54:00;;;;;;;5.15;2.58;;;;;;;27.29;39.12;99066.06;4287318;33;33878;-67
2023/08/31 04:56:30;;;;;;;4.80;2.17;;;;;;;27.24;39.19;99064.13;4287232;33;34062;-66
2023/08/31 04:58:58;;;;;;;3.30;2.00;;;;;;;27.23;39.23;99081.63;4285743;33;34739;-66
2023/08/31 05:01:25;;;;;;;5.20;2.33;;;;;;;27.23;39.05;99081.63;4286973;33;33666;-65
2023/08/31 05:03:53;;;;;;;5.55;2.40;;;;;;;27.21;39.03;99076.41;4287172;33;34752;-65
2023/08/31 05:06:20;;;;;;;3.62;2.17;;;;;;;27.20;39.22;99085.75;4286993;33;33924;-69
2023/08/31 05:08:48;;;;;;;3.90;2.30;;;;;;;27.20;39.20;99082.19;4287084;33;34897;-66
2023/08/31 05:11:15;;;;;;;6.97;2.70;;;;;;;27.20;39.20;99085.75;4287099;33;33580;-65
2023/08/31 05:13:43;;;;;;;4.78;2.78;;;;;;;27.20;39.20;99093.97;4286864;33;33936;-68
2023/08/31 05:16:11;;;;;;;4.32;2.28;;;;;;;27.18;39.22;99098.03;4287095;33;34885;-65
2023/08/31 05:18:40;;;;;;;3.92;2.12;;;;;;;27.18;39.29;99107.06;4274039;33;34156;-71
2023/08/31 05:21:07;;;;;;;5.30;2.30;;;;;;;27.18;39.25;99112.56;4285769;33;33705;-72
2023/08/31 05:23:35;;;;;;;4.43;2.10;;;;;;;27.16;39.24;99112.00;4286940;33;34012;-66
2023/08/31 05:26:03;;;;;;;4.07;2.20;;;;;;;27.17;39.28;99110.09;4287079;33;33999;-73
2023/08/31 05:28:30;;;;;;;3.80;2.37;;;;;;;27.16;39.18;99114.75;4286825;33;34069;-66
2023/08/31 05:31:00;;;;;;;4.22;2.30;;;;;;;27.15;39.26;99109.56;4300524;33;33724;-69
2023/08/31 05:33:29;;;;;;;;;;;;;;;27.14;39.42;99113.34;4289997;33;34655;-66
2023/08/31 05:35:57;;;;;;;4.10;2.40;;;;;;;27.25;39.16;99126.03;4302493;33;34259;-67
2023/08/31 05:38:25;;;;;;;3.37;2.17;;;;;;;27.16;39.26;99128.44;4290095;33;33067;-65
2023/08/31 05:40:52;;;;;;;3.25;2.10;;;;;;;27.13;39.15;99128.16;4302674;33;33229;-65
2023/08/31 05:43:20;;;;;;;4.18;2.60;;;;;;;27.11;39.30;99130.34;4290495;33;33863;-66
2023/08/31 05:45:48;;;;;;;3.15;2.03;;;;;;;27.11;39.37;99136.62;4303419;33;34818;-65
2023/08/31 05:48:15;;;;;;;6.80;2.30;;;;;;;27.08;39.40;99142.63;4290148;33;34179;-66
2023/08/31 05:50:43;;;;;;;3.53;2.20;;;;;;;27.09;39.41;99136.09;4303372;33;34598;-65
2023/08/31 05:53:11;;;;;;;4.25;2.35;;;;;;;27.08;39.56;99145.38;4303347;33;34009;-66
2023/08/31 05:55:39;;;;;;;5.12;2.72;;;;;;;27.09;39.55;99144.31;4303253;33;33723;-66
2023/08/31 05:58:07;;;;;;;6.37;2.60;;;;;;;27.08;39.50;99150.84;4303221;33;34059;-67
2023/08/31 06:00:35;;;;;;;4.75;2.90;;;;;;;27.08;39.63;99152.75;4303305;33;33700;-67
2023/08/31 06:03:05;;;;;;;5.90;3.10;;;;;;;27.08;39.45;99158.22;4303193;33;33944;-65
2023/08/31 06:05:33;;;;;;;4.25;2.90;;;;;;;27.07;39.33;99156.56;4292396;33;35247;-66
2023/08/31 06:08:00;;;;;;;4.80;2.80;;;;;;;27.07;39.30;99162.87;4288851;33;34417;-65
2023/08/31 06:10:29;;;;;;;7.35;2.80;;;;;;;27.04;39.51;99168.88;4288750;33;33481;-65
2023/08/31 06:12:56;;;;;;;4.75;2.72;;;;;;;27.05;39.45;99170.53;4288966;33;33508;-66
2023/08/31 06:15:24;;;;;;;5.22;2.65;;;;;;;27.03;39.65;99178.19;4288718;33;33972;-67
2023/08/31 06:17:51;;;;;;;5.55;2.47;;;;;;;27.03;39.80;99178.19;4288611;33;34356;-72
2023/08/31 06:20:19;;;;;;;5.82;2.60;;;;;;;27.03;39.60;99180.09;4289122;33;33713;-66
2023/08/31 06:22:46;;;;;;;4.43;2.75;;;;;;;27.02;39.60;99178.47;4288722;33;33910;-69
2023/08/31 06:25:16;;;;;;;6.35;2.30;;;;;;;27.00;39.58;99181.47;4288576;33;34178;-68
2023/08/31 06:27:43;;;;;;;3.57;2.10;;;;;;;27.00;39.73;99186.09;4288725;33;34146;-69
2023/08/31 06:30:15;;;;;;;4.95;2.58;;;;;;;27.00;39.69;99191.56;4297573;33;34516;-65
2023/08/31 06:32:44;;;;;;;5.85;2.60;;;;;;;26.99;39.73;99193.47;4301896;33;34585;-67
2023/08/31 06:35:12;;;;;;;3.85;2.10;;;;;;;26.99;39.76;99195.41;4301837;33;34706;-66
2023/08/31 06:37:39;;;;;;;4.72;2.40;;;;;;;26.99;39.94;99193.47;4290099;33;34936;-66
2023/08/31 06:40:08;;;;;;;4.00;2.30;;;;;;;26.98;39.96;99188.28;4303091;33;33399;-66
2023/08/31 06:42:36;;;;;;;5.18;2.70;;;;;;;26.99;39.95;99188.00;4303375;33;34013;-70
2023/08/31 06:45:05;;;;;;;5.30;2.50;;;;;;;26.98;39.89;99191.84;4300910;33;33980;-65
2023/08/31 06:47:33;;;;;;;4.50;2.40;;;;;;;26.99;39.83;99192.66;4290020;33;33808;-70
2023/08/31 06:50:00;;;;;;;3.83;2.33;;;;;;;26.99;39.93;99195.41;4302098;33;33604;-67
2023/08/31 06:52:29;;;;;;;4.30;2.62;;;;;;;26.98;39.90;99200.06;4302952;33;34823;-64
2023/08/31 06:54:59;;;;;;;5.43;2.40;;;;;;;26.98;39.79;99196.50;4300039;33;35055;-67
2023/08/31 06:57:27;;;;;;;3.40;2.30;;;;;;;26.98;39.90;99201.97;4295556;33;34778;-72
2023/08/31 06:59:54;;;;;;;3.80;2.30;;;;;;;26.97;39.85;99206.63;4301489;33;33686;-66
2023/08/31 07:02:24;;;;;;;4.50;2.15;;;;;;;26.95;39.99;99212.38;4289940;33;34673;-73
2023/08/31 07:04:52;;;;;;;3.97;2.40;;;;;;;26.95;40.06;99211.53;4290318;33;34032;-70
2023/08/31 07:07:20;;;;;;;6.12;2.50;;;;;;;26.95;39.97;99225.22;4288415;33;34171;-68
2023/08/31 07:09:51;;;;;;;6.55;2.60;;;;;;;26.93;39.96;99216.47;4288482;33;33174;-73
2023/08/31 07:12:18;;;;;;;4.60;2.33;;;;;;;26.94;39.94;99226.31;4288521;33;34633;-75
2023/08/31 07:14:46;;;;;;;5.50;2.65;;;;;;;26.94;40.07;99234.53;4287093;33;34575;-74
2023/08/31 07:17:18;;;;;;;3.40;2.50;;;;;;;26.92;40.12;99232.06;4302433;33;34209;-74
2023/08/31 07:19:45;;;;;;;4.05;2.45;;;;;;;26.93;40.23;99241.09;4290157;33;33719;-74
2023/08/31 07:22:13;;;;;;;5.05;2.40;;;;;;;26.93;40.06;99233.69;4302853;33;34348;-75
2023/08/31 07:24:40;;;;;;;6.70;2.80;;;;;;;26.93;40.06;99230.16;4302793;33;33954;-74
2023/08/31 07:27:08;;;;;;;4.32;2.65;;;;;;;26.91;40.07;99229.59;4302607;33;34155;-74
2023/08/31 07:29:35;;;;;;;4.28;2.45;;;;;;;26.90;40.12;99231.47;4295402;33;33247;-71
2023/08/31 07:32:03;;;;;;;5.12;2.75;;;;;;;26.89;40.15;99238.06;4284948;33;32817;-73
2023/08/31 07:34:31;;;;;;;4.00;2.45;;;;;;;26.89;40.17;99239.97;4286317;33;34324;-73
2023/08/31 07:37:00;;;;;;;4.15;2.37;;;;;;;26.88;40.25;99246.53;4286413;33;34804;-74
2023/08/31 07:39:28;;;;;;;5.43;2.50;;;;;;;26.87;40.25;99248.44;4287451;33;33730;-73
2023/08/31 07:41:55;;;;;;;5.10;2.70;;;;;;;26.87;40.26;99247.63;4287116;33;34711;-73
2023/08/31 07:44:23;;;;;;;3.87;2.65;;;;;;;26.85;40.25;99250.59;4288197;33;35515;-73
2023/08/31 07:46:51;;;;;;;3.90;2.58;;;;;;;26.87;40.22;99247.63;4288209;33;34896;-73
2023/08/31 07:49:18;;;;;;;3.53;2.20;;;;;;;26.86;40.33;99255.03;4288025;33;33580;-73
2023/08/31 07:51:46;;;;;;;4.15;2.47;;;;;;;26.85;40.32;99258.00;4290200;33;34684;-73
2023/08/31 07:54:23;;;;;;;6.05;2.92;;;;;;;26.85;40.33;99253.34;4302552;33;34094;-73
2023/08/31 07:56:50;;;;;;;5.75;3.00;;;;;;;26.85;40.40;99250.59;4288991;33;32874;-74
2023/08/31 07:59:18;;;;;;;4.53;2.40;;;;;;;26.85;40.38;99258.81;4302397;33;34650;-74
2023/08/31 08:01:46;;;;;;;5.45;2.60;;;;;;;26.85;40.38;99258.00;4300986;33;33918;-71
2023/08/31 08:04:14;;;;;;;4.97;2.67;;;;;;;26.83;40.39;99257.44;4298974;33;33689;-73
2023/08/31 08:06:42;;;;;;;6.75;2.70;;;;;;;26.84;40.47;99268.13;4300771;33;33940;-74
2023/08/31 08:09:09;;;;;;;4.90;2.45;;;;;;;26.85;40.42;99263.47;4300837;33;34577;-68
2023/08/31 08:11:37;;;;;;;4.10;2.55;;;;;;;26.85;40.49;99263.47;4300548;33;33655;-74
2023/08/31 08:14:04;;;;;;;4.35;2.12;;;;;;;26.87;40.54;99269.53;4300513;33;33646;-69
2023/08/31 08:16:35;;;;;;;3.97;2.50;;;;;;;26.87;40.49;99267.63;4300955;33;33828;-68
2023/08/31 08:19:05;;;;;;;6.37;2.50;;;;;;;26.87;40.35;99270.34;4301088;33;33545;-70
2023/08/31 08:21:33;;;;;;;5.10;2.53;;;;;;;26.87;40.43;99270.34;4289121;33;33816;-71
2023/08/31 08:24:01;;;;;;;4.55;2.25;;;;;;;26.89;40.34;99272.81;4288938;33;33971;-70
2023/08/31 08:26:28;;;;;;;4.32;2.40;;;;;;;26.89;40.42;99272.81;4285275;33;33877;-68
2023/08/31 08:28:56;;;;;;;4.62;2.50;;;;;;;26.90;40.33;99274.47;4286857;33;33629;-75
2023/08/31 08:31:24;;;;;;;4.32;2.33;;;;;;;26.89;40.36;99275.56;4299921;33;33899;-67
2023/08/31 08:33:52;;;;;;;4.82;2.60;;;;;;;26.90;40.45;99275.28;4300020;33;33958;-74
2023/08/31 08:36:20;;;;;;;4.50;2.10;;;;;;;26.91;40.51;99278.88;4293479;33;34148;-74
2023/08/31 08:38:47;;;;;;;3.70;2.25;;;;;;;26.93;40.48;99284.91;4293620;33;33367;-67
2023/08/31 08:41:18;;;;;;;5.55;2.58;;;;;;;26.92;40.51;99280.50;4300091;33;34660;-73
2023/08/31 08:43:47;;;;;;;3.33;2.17;;;;;;;26.94;40.48;99278.31;4287760;33;33846;-72
2023/08/31 08:46:15;;;;;;;5.57;2.70;;;;;;;26.93;40.45;99282.97;4287299;33;34084;-67
2023/08/31 08:48:45;;;;;;;4.47;2.40;;;;;;;26.96;40.37;99284.37;4299403;33;33394;-67
2023/08/31 08:51:13;;;;;;;4.62;2.58;;;;;;;26.94;40.35;99281.06;4300989;33;33470;-69
2023/08/31 08:53:42;;;;;;;4.82;2.45;;;;;;;26.96;40.27;99289.84;4300465;33;34712;-68
2023/08/31 08:56:09;;;;;;;4.60;2.53;;;;;;;26.94;40.28;99290.09;4301682;33;34854;-66
2023/08/31 08:58:37;;;;;;;5.75;2.20;;;;;;;26.96;40.03;99289.84;4301718;33;33790;-68
2023/08/31 09:01:06;;;;;;;3.47;2.28;;;;;;;26.96;39.99;99298.06;4300294;33;33904;-71
2023/08/31 09:03:34;;;;;;;4.60;2.40;;;;;;;26.97;39.75;99291.50;4300335;33;33349;-70
2023/08/31 09:06:03;;;;;;;4.07;2.00;;;;;;;26.95;39.50;99300.00;4301693;33;33620;-74
2023/08/31 09:08:31;;;;;;;3.10;2.05;;;;;;;26.96;39.44;99301.63;4303301;33;33234;-68
2023/08/31 09:10:59;;;;;;;3.75;2.00;;;;;;;26.95;39.43;99300.00;4303649;33;34634;-72
2023/08/31 09:13:29;;;;;;;3.70;2.10;;;;;;;26.95;39.42;99301.88;4290647;33;33922;-68
2023/08/31 09:15:57;;;;;;;3.78;1.92;;;;;;;26.95;39.39;99300.00;4303518;33;34183;-73
2023/08/31 09:18:26;;;;;;;4.47;2.15;;;;;;;26.97;39.34;99307.94;4303466;33;33656;-74
2023/08/31 09:20:56;;;;;;;3.47;2.00;;;;;;;26.96;39.20;99317.25;4303511;33;33622;-73
2023/08/31 09:23:24;;;;;;;2.70;1.80;;;;;;;26.98;39.14;99311.50;4303634;33;33781;-67
2023/08/31 09:25:53;;;;;;;5.45;1.98;;;;;;;26.98;39.22;99314.22;4303291;33;33879;-71
2023/08/31 09:28:22;;;;;;;3.40;1.90;;;;;;;26.98;39.12;99308.75;4303523;33;34516;-66
2023/08/31 09:30:52;;;;;;;3.75;2.00;;;;;;;26.99;39.15;99313.97;4299034;33;33097;-74
2023/08/31 09:33:20;;;;;;;3.70;2.15;;;;;;;27.00;39.28;99315.63;4298250;33;33903;-72
2023/08/31 09:35:50;;;;;;;3.60;2.30;;;;;;;27.01;39.33;99314.53;4302282;33;34075;-73
2023/08/31 09:38:18;;;;;;;4.40;2.00;;;;;;;27.01;39.37;99319.19;4302524;33;33693;-68
2023/08/31 09:40:46;;;;;;;3.25;1.92;;;;;;;27.04;39.45;99321.38;4303749;33;33795;-68
2023/08/31 09:43:20;;;;;;;4.20;2.10;;;;;;;27.03;39.43;99317.81;4289332;33;34686;-67
2023/08/31 09:45:47;;;;;;;3.75;2.03;;;;;;;27.04;39.25;99319.47;4302685;33;34163;-67
2023/08/31 09:48:15;;;;;;;3.55;2.35;;;;;;;27.06;39.22;99321.97;4290084;33;33657;-70
2023/08/31 09:50:44;;;;;;;3.83;2.33;;;;;;;27.07;39.20;99318.13;4287860;33;33912;-69
2023/08/31 09:53:12;;;;;;;4.82;2.25;;;;;;;27.06;39.10;99331.00;4287746;33;33996;-66
2023/08/31 09:55:40;;;;;;;3.37;1.90;;;;;;;27.09;39.13;99333.25;4287419;33;34923;-73
2023/08/31 09:58:08;;;;;;;3.25;2.05;;;;;;;27.08;38.78;99328.84;4287642;33;33156;-74
2023/08/31 10:00:46;;;;;;;3.65;1.77;;;;;;;27.08;38.77;99337.06;4299618;33;34634;-69
2023/08/31 10:03:15;;;;;;;3.03;1.95;;;;;;;27.09;38.62;99337.87;4292406;33;33927;-66
2023/08/31 10:05:48;;;;;;;3.30;2.10;;;;;;;27.08;38.36;99330.72;4284923;33;36096;-66
2023/08/31 10:08:16;;;;;;;3.08;1.95;;;;;;;27.06;38.57;99346.63;4276827;33;33517;-68
2023/08/31 10:10:43;;;;;;;4.65;2.35;;;;;;;27.07;38.64;99340.03;4302146;33;33920;-75
2023/08/31 10:13:11;;;;;;;3.95;2.10;;;;;;;27.07;38.60;99351.81;4290490;33;33803;-68
2023/08/31 10:15:40;;;;;;;3.12;2.00;;;;;;;27.06;38.59;99355.66;4301828;33;34940;-67
2023/08/31 10:18:10;;;;;;;4.18;2.00;;;;;;;27.08;38.74;99355.38;4299379;33;33688;-74
2023/08/31 10:20:45;;;;;;;3.25;1.92;;;;;;;27.09;38.84;99357.06;4293535;33;33754;-65
2023/08/31 10:23:13;;;;;;;4.68;2.58;;;;;;;27.07;38.95;99362.78;4297763;33;34421;-66
2023/08/31 10:25:47;;;;;;;3.85;2.10;;;;;;;27.08;38.99;99356.22;4279860;33;34334;-65
2023/08/31 10:28:19;;;;;;;3.58;2.00;;;;;;;27.09;39.23;99357.91;4288589;33;33620;-67
2023/08/31 10:31:18;;;;;;;2.75;1.70;;;;;;;27.09;39.28;99357.06;4288754;33;33999;-65
2023/08/31 10:34:09;;;;;;;3.42;1.90;;;;;;;27.12;39.35;99362.00;4288634;33;33709;-66
2023/08/31 10:36:55;;;;;;;3.67;2.10;;;;;;;27.13;39.51;99360.94;4297200;33;34115;-65
2023/08/31 10:39:40;;;;;;;4.03;1.95;;;;;;;27.13;39.44;99369.97;4288471;33;34401;-70
2023/08/31 10:42:07;;;;;;;4.25;2.10;;;;;;;27.11;39.49;99372.16;4288554;33;34045;-71
2023/08/31 10:44:35;;;;;;;3.17;1.98;;;;;;;27.10;39.52;99370.50;4297088;33;35204;-65
2023/08/31 10:47:03;;;;;;;3.22;1.80;;;;;;;27.11;39.54;99385.03;4288548;33;33455;-73
2023/08/31 10:49:32;;;;;;;3.20;1.90;;;;;;;27.10;39.58;99375.97;4297380;33;33489;-66
2023/08/31 10:52:19;;;;;;;2.37;1.70;;;;;;;27.10;39.70;99373.25;4288566;33;33573;-65
2023/08/31 10:55:07;;;;;;;3.25;2.00;;;;;;;27.14;39.49;99371.62;4296879;33;34449;-65
2023/08/31 10:57:35;;;;;;;5.90;2.00;;;;;;;27.12;39.58;99381.19;4303053;33;33321;-68
2023/08/31 11:00:03;;;;;;;3.00;1.62;;;;;;;27.12;39.67;99367.50;4301212;33;34580;-67
2023/08/31 11:02:41;;;;;;;2.95;1.83;;;;;;;27.12;39.64;99383.94;4297797;33;33450;-65
2023/08/31 11:05:14;;;;;;;4.55;1.85;;;;;;;27.11;39.52;99380.38;4298018;33;34572;-65
2023/08/31 11:07:43;;;;;;;3.95;2.03;;;;;;;27.12;39.69;99392.13;4288562;33;34754;-67
2023/08/31 11:10:14;;;;;;;5.40;2.00;;;;;;;27.12;39.61;99386.66;4301740;33;33704;-69
2023/08/31 11:12:43;;;;;;;2.85;1.80;;;;;;;27.13;39.66;99389.13;4295783;33;34985;-76
2023/08/31 11:15:15;;;;;;;3.25;1.80;;;;;;;27.14;39.76;99389.94;4287258;33;33743;-75
2023/08/31 11:17:43;;;;;;;4.12;2.10;;;;;;;27.18;39.84;99396.56;4275450;33;34223;-78
2023/08/31 11:20:16;;;;;;;3.62;1.80;;;;;;;27.21;39.71;99396.88;4287247;33;34172;-74
2023/08/31 11:22:46;;;;;;;3.45;1.73;;;;;;;27.24;39.72;99397.47;4288663;33;34303;-78
2023/08/31 11:25:14;;;;;;;4.93;2.07;;;;;;;27.21;39.76;99396.88;4281854;33;33705;-72
2023/08/31 11:27:42;;;;;;;3.42;1.95;;;;;;;27.21;39.77;99396.88;4287460;33;34176;-73
2023/08/31 11:30:15;;;;;;;3.20;2.00;;;;;;;27.22;39.79;99397.69;4302269;33;33573;-76
2023/08/31 11:32:47;;;;;;;3.12;1.90;;;;;;;27.20;39.81;99395.22;4289429;33;33845;-78
2023/08/31 11:35:16;;;;;;;3.62;2.22;;;;;;;27.21;39.75;99398.78;4303042;33;33427;-72
2023/08/31 11:37:44;;;;;;;3.67;2.03;;;;;;;27.21;39.73;99394.13;4302839;33;33843;-78
2023/08/31 11:40:14;;;;;;;3.92;2.00;;;;;;;27.27;39.65;99383.22;4289707;33;33741;-79
2023/08/31 11:42:42;;;;;;;4.20;2.20;;;;;;;27.25;39.70;99393.63;4301643;33;33958;-77